sensor_id;sensor_type;location;lat;lon;timestamp;P1;durP1;ratioP1;P2;durP2;ratioP2
11522;SDS011;70090;43.208;27.904;2023-07-13T00:01:05;16.87;;;15.27;;
11522;SDS011;70090;43.208;27.904;2023-07-13T00:03:32;16.00;;;14.50;;
11522;SDS011;70090;43.208;27.904;2023-07-13T00:06:00;15.50;;;14.00;;
11522;SDS011;70090;43.208;27.904;2023-07-13T00:08:29;15.37;;;13.77;;
11522;SDS011;70090;43.208;27.904;2023-07-13T00:10:57;15.67;;;14.10;;
11522;SDS011;70090;43.208;27.904;2023-07-13T00:13:24;15.80;;;13.87;;
11522;SDS011;70090;43.208;27.904;2023-07-13T00:15:51;15.90;;;14.50;;
11522;SDS011;70090;43.208;27.904;2023-07-13T00:18:20;16.27;;;14.57;;
11522;SDS011;70090;43.208;27.904;2023-07-13T00:20:47;15.50;;;13.90;;
11522;SDS011;70090;43.208;27.904;2023-07-13T00:23:14;16.03;;;14.30;;
11522;SDS011;70090;43.208;27.904;2023-07-13T00:25:42;16.67;;;14.23;;
11522;SDS011;70090;43.208;27.904;2023-07-13T00:28:09;15.87;;;14.20;;
11522;SDS011;70090;43.208;27.904;2023-07-13T00:30:36;15.67;;;14.00;;
11522;SDS011;70090;43.208;27.904;2023-07-13T00:33:02;14.80;;;13.50;;
11522;SDS011;70090;43.208;27.904;2023-07-13T00:35:31;15.47;;;13.80;;
11522;SDS011;70090;43.208;27.904;2023-07-13T00:37:58;14.80;;;13.30;;
11522;SDS011;70090;43.208;27.904;2023-07-13T00:40:25;15.57;;;13.73;;
11522;SDS011;70090;43.208;27.904;2023-07-13T00:42:52;14.57;;;13.23;;
11522;SDS011;70090;43.208;27.904;2023-07-13T00:48:24;15.70;;;14.20;;
11522;SDS011;70090;43.208;27.904;2023-07-13T00:50:55;14.43;;;13.13;;
11522;SDS011;70090;43.208;27.904;2023-07-13T00:53:25;17.50;;;14.83;;
11522;SDS011;70090;43.208;27.904;2023-07-13T00:55:53;15.67;;;14.20;;
11522;SDS011;70090;43.208;27.904;2023-07-13T00:58:22;16.03;;;14.53;;
11522;SDS011;70090;43.208;27.904;2023-07-13T01:00:50;15.40;;;14.00;;
11522;SDS011;70090;43.208;27.904;2023-07-13T01:03:17;16.80;;;15.10;;
11522;SDS011;70090;43.208;27.904;2023-07-13T01:05:46;16.80;;;14.73;;
11522;SDS011;70090;43.208;27.904;2023-07-13T01:08:16;17.80;;;14.90;;
11522;SDS011;70090;43.208;27.904;2023-07-13T01:10:50;16.37;;;14.70;;
11522;SDS011;70090;43.208;27.904;2023-07-13T01:13:17;15.50;;;14.10;;
11522;SDS011;70090;43.208;27.904;2023-07-13T01:15:45;16.63;;;14.90;;
11522;SDS011;70090;43.208;27.904;2023-07-13T01:18:15;15.70;;;14.20;;
11522;SDS011;70090;43.208;27.904;2023-07-13T01:20:50;17.23;;;15.53;;
11522;SDS011;70090;43.208;27.904;2023-07-13T01:23:18;16.33;;;14.67;;
11522;SDS011;70090;43.208;27.904;2023-07-13T01:25:45;17.37;;;15.53;;
11522;SDS011;70090;43.208;27.904;2023-07-13T01:28:12;16.90;;;15.17;;
11522;SDS011;70090;43.208;27.904;2023-07-13T01:30:39;16.97;;;15.17;;
11522;SDS011;70090;43.208;27.904;2023-07-13T01:33:10;17.57;;;14.60;;
11522;SDS011;70090;43.208;27.904;2023-07-13T01:35:38;16.80;;;15.10;;
11522;SDS011;70090;43.208;27.904;2023-07-13T01:38:07;15.70;;;14.07;;
11522;SDS011;70090;43.208;27.904;2023-07-13T01:40:35;19.43;;;14.30;;
11522;SDS011;70090;43.208;27.904;2023-07-13T01:43:02;16.90;;;15.07;;
11522;SDS011;70090;43.208;27.904;2023-07-13T01:45:30;16.83;;;15.03;;
11522;SDS011;70090;43.208;27.904;2023-07-13T01:47:57;16.70;;;15.20;;
11522;SDS011;70090;43.208;27.904;2023-07-13T01:50:24;16.90;;;15.20;;
11522;SDS011;70090;43.208;27.904;2023-07-13T01:52:51;17.17;;;15.50;;
11522;SDS011;70090;43.208;27.904;2023-07-13T01:55:20;16.23;;;14.80;;
11522;SDS011;70090;43.208;27.904;2023-07-13T01:57:47;16.50;;;14.50;;
11522;SDS011;70090;43.208;27.904;2023-07-13T02:00:14;17.83;;;15.93;;
11522;SDS011;70090;43.208;27.904;2023-07-13T02:02:43;16.77;;;14.67;;
11522;SDS011;70090;43.208;27.904;2023-07-13T02:05:10;17.73;;;16.03;;
11522;SDS011;70090;43.208;27.904;2023-07-13T02:07:38;17.53;;;15.83;;
11522;SDS011;70090;43.208;27.904;2023-07-13T02:10:07;15.90;;;14.30;;
11522;SDS011;70090;43.208;27.904;2023-07-13T02:12:37;16.30;;;14.87;;
11522;SDS011;70090;43.208;27.904;2023-07-13T02:15:05;16.47;;;14.93;;
11522;SDS011;70090;43.208;27.904;2023-07-13T02:17:33;16.23;;;14.70;;
11522;SDS011;70090;43.208;27.904;2023-07-13T02:20:00;15.50;;;14.10;;
11522;SDS011;70090;43.208;27.904;2023-07-13T02:22:27;17.20;;;15.50;;
11522;SDS011;70090;43.208;27.904;2023-07-13T02:24:54;16.83;;;15.10;;
11522;SDS011;70090;43.208;27.904;2023-07-13T02:27:21;17.00;;;15.03;;
11522;SDS011;70090;43.208;27.904;2023-07-13T02:29:50;16.27;;;14.83;;
11522;SDS011;70090;43.208;27.904;2023-07-13T02:32:17;17.20;;;14.50;;
11522;SDS011;70090;43.208;27.904;2023-07-13T02:34:44;15.17;;;13.77;;
11522;SDS011;70090;43.208;27.904;2023-07-13T02:37:11;15.43;;;13.70;;
11522;SDS011;70090;43.208;27.904;2023-07-13T02:39:38;16.17;;;14.57;;
11522;SDS011;70090;43.208;27.904;2023-07-13T02:42:05;18.83;;;13.57;;
11522;SDS011;70090;43.208;27.904;2023-07-13T02:44:32;16.70;;;13.23;;
11522;SDS011;70090;43.208;27.904;2023-07-13T02:47:01;17.90;;;13.53;;
11522;SDS011;70090;43.208;27.904;2023-07-13T02:49:27;14.73;;;13.30;;
11522;SDS011;70090;43.208;27.904;2023-07-13T02:51:54;15.70;;;14.00;;
11522;SDS011;70090;43.208;27.904;2023-07-13T02:54:21;14.67;;;13.17;;
11522;SDS011;70090;43.208;27.904;2023-07-13T02:56:48;19.00;;;13.20;;
11522;SDS011;70090;43.208;27.904;2023-07-13T02:59:15;16.97;;;13.33;;
11522;SDS011;70090;43.208;27.904;2023-07-13T03:01:42;18.07;;;15.70;;
11522;SDS011;70090;43.208;27.904;2023-07-13T03:04:10;18.37;;;16.43;;
11522;SDS011;70090;43.208;27.904;2023-07-13T03:06:37;14.33;;;12.97;;
11522;SDS011;70090;43.208;27.904;2023-07-13T03:09:04;15.83;;;14.20;;
11522;SDS011;70090;43.208;27.904;2023-07-13T03:11:31;16.60;;;14.93;;
11522;SDS011;70090;43.208;27.904;2023-07-13T03:13:58;15.93;;;14.33;;
11522;SDS011;70090;43.208;27.904;2023-07-13T03:16:24;15.47;;;13.57;;
11522;SDS011;70090;43.208;27.904;2023-07-13T03:18:51;16.30;;;14.70;;
11522;SDS011;70090;43.208;27.904;2023-07-13T03:21:20;16.63;;;15.03;;
11522;SDS011;70090;43.208;27.904;2023-07-13T03:23:46;17.20;;;15.20;;
11522;SDS011;70090;43.208;27.904;2023-07-13T03:26:15;28.03;;;25.23;;
11522;SDS011;70090;43.208;27.904;2023-07-13T03:28:43;17.73;;;15.67;;
11522;SDS011;70090;43.208;27.904;2023-07-13T03:31:11;17.90;;;16.00;;
11522;SDS011;70090;43.208;27.904;2023-07-13T03:33:40;18.53;;;16.57;;
11522;SDS011;70090;43.208;27.904;2023-07-13T03:36:07;17.53;;;15.77;;
11522;SDS011;70090;43.208;27.904;2023-07-13T03:38:45;17.53;;;15.93;;
11522;SDS011;70090;43.208;27.904;2023-07-13T03:41:13;17.47;;;15.20;;
11522;SDS011;70090;43.208;27.904;2023-07-13T03:43:40;15.63;;;14.10;;
11522;SDS011;70090;43.208;27.904;2023-07-13T03:46:07;17.50;;;15.80;;
11522;SDS011;70090;43.208;27.904;2023-07-13T03:48:34;18.40;;;16.67;;
11522;SDS011;70090;43.208;27.904;2023-07-13T03:51:01;19.20;;;17.17;;
11522;SDS011;70090;43.208;27.904;2023-07-13T03:53:28;18.13;;;16.23;;
11522;SDS011;70090;43.208;27.904;2023-07-13T03:55:57;17.30;;;15.60;;
11522;SDS011;70090;43.208;27.904;2023-07-13T03:58:25;17.30;;;15.50;;
11522;SDS011;70090;43.208;27.904;2023-07-13T04:00:55;18.73;;;16.67;;
11522;SDS011;70090;43.208;27.904;2023-07-13T04:03:22;19.03;;;14.97;;
11522;SDS011;70090;43.208;27.904;2023-07-13T04:05:49;17.90;;;16.00;;
11522;SDS011;70090;43.208;27.904;2023-07-13T04:08:16;18.37;;;15.67;;
11522;SDS011;70090;43.208;27.904;2023-07-13T04:10:43;18.20;;;16.30;;
11522;SDS011;70090;43.208;27.904;2023-07-13T04:13:11;19.13;;;16.97;;
11522;SDS011;70090;43.208;27.904;2023-07-13T04:15:38;20.00;;;16.20;;
11522;SDS011;70090;43.208;27.904;2023-07-13T04:18:05;18.23;;;15.97;;
11522;SDS011;70090;43.208;27.904;2023-07-13T04:20:32;16.40;;;14.67;;
11522;SDS011;70090;43.208;27.904;2023-07-13T04:22:59;19.67;;;15.80;;
11522;SDS011;70090;43.208;27.904;2023-07-13T04:25:25;17.30;;;13.53;;
11522;SDS011;70090;43.208;27.904;2023-07-13T04:27:53;17.53;;;14.50;;
11522;SDS011;70090;43.208;27.904;2023-07-13T04:30:22;19.40;;;15.93;;
11522;SDS011;70090;43.208;27.904;2023-07-13T04:32:49;23.97;;;16.33;;
11522;SDS011;70090;43.208;27.904;2023-07-13T04:35:17;20.20;;;15.67;;
11522;SDS011;70090;43.208;27.904;2023-07-13T04:37:45;22.00;;;19.20;;
11522;SDS011;70090;43.208;27.904;2023-07-13T04:40:12;22.47;;;16.53;;
11522;SDS011;70090;43.208;27.904;2023-07-13T04:42:39;19.20;;;15.13;;
11522;SDS011;70090;43.208;27.904;2023-07-13T04:45:06;20.37;;;13.60;;
11522;SDS011;70090;43.208;27.904;2023-07-13T04:47:35;17.33;;;14.40;;
11522;SDS011;70090;43.208;27.904;2023-07-13T04:50:02;21.10;;;16.10;;
11522;SDS011;70090;43.208;27.904;2023-07-13T04:52:29;20.60;;;15.40;;
11522;SDS011;70090;43.208;27.904;2023-07-13T04:54:58;24.60;;;16.53;;
11522;SDS011;70090;43.208;27.904;2023-07-13T04:57:25;20.43;;;16.43;;
11522;SDS011;70090;43.208;27.904;2023-07-13T04:59:51;23.47;;;16.20;;
11522;SDS011;70090;43.208;27.904;2023-07-13T05:02:20;23.97;;;17.00;;
11522;SDS011;70090;43.208;27.904;2023-07-13T05:04:48;19.23;;;15.67;;
11522;SDS011;70090;43.208;27.904;2023-07-13T05:07:15;21.83;;;16.80;;
11522;SDS011;70090;43.208;27.904;2023-07-13T05:09:42;25.13;;;16.13;;
11522;SDS011;70090;43.208;27.904;2023-07-13T05:12:09;24.47;;;16.50;;
11522;SDS011;70090;43.208;27.904;2023-07-13T05:14:36;19.37;;;16.07;;
11522;SDS011;70090;43.208;27.904;2023-07-13T05:17:03;21.33;;;17.23;;
11522;SDS011;70090;43.208;27.904;2023-07-13T05:19:30;23.57;;;17.60;;
11522;SDS011;70090;43.208;27.904;2023-07-13T05:21:59;25.87;;;19.43;;
11522;SDS011;70090;43.208;27.904;2023-07-13T05:24:27;27.60;;;18.43;;
11522;SDS011;70090;43.208;27.904;2023-07-13T05:26:55;27.47;;;17.50;;
11522;SDS011;70090;43.208;27.904;2023-07-13T05:29:22;24.90;;;16.70;;
11522;SDS011;70090;43.208;27.904;2023-07-13T05:31:49;22.67;;;16.20;;
11522;SDS011;70090;43.208;27.904;2023-07-13T05:34:16;27.27;;;16.40;;
11522;SDS011;70090;43.208;27.904;2023-07-13T05:36:43;22.60;;;16.07;;
11522;SDS011;70090;43.208;27.904;2023-07-13T05:39:11;18.97;;;15.10;;
11522;SDS011;70090;43.208;27.904;2023-07-13T05:41:39;23.47;;;16.20;;
11522;SDS011;70090;43.208;27.904;2023-07-13T05:44:06;23.33;;;15.33;;
11522;SDS011;70090;43.208;27.904;2023-07-13T05:46:33;23.30;;;14.90;;
11522;SDS011;70090;43.208;27.904;2023-07-13T05:49:00;26.00;;;15.60;;
11522;SDS011;70090;43.208;27.904;2023-07-13T05:51:27;19.37;;;14.80;;
11522;SDS011;70090;43.208;27.904;2023-07-13T05:53:54;22.07;;;14.03;;
11522;SDS011;70090;43.208;27.904;2023-07-13T05:56:22;23.40;;;15.00;;
11522;SDS011;70090;43.208;27.904;2023-07-13T05:58:50;19.63;;;15.07;;
11522;SDS011;70090;43.208;27.904;2023-07-13T06:01:17;18.10;;;13.87;;
11522;SDS011;70090;43.208;27.904;2023-07-13T06:03:45;20.30;;;14.23;;
11522;SDS011;70090;43.208;27.904;2023-07-13T06:06:13;15.80;;;13.23;;
11522;SDS011;70090;43.208;27.904;2023-07-13T06:08:42;15.40;;;13.67;;
11522;SDS011;70090;43.208;27.904;2023-07-13T06:11:17;15.20;;;13.27;;
11522;SDS011;70090;43.208;27.904;2023-07-13T06:13:46;14.70;;;13.23;;
11522;SDS011;70090;43.208;27.904;2023-07-13T06:16:14;14.57;;;13.00;;
11522;SDS011;70090;43.208;27.904;2023-07-13T06:18:41;15.03;;;13.37;;
11522;SDS011;70090;43.208;27.904;2023-07-13T06:21:09;14.73;;;13.23;;
11522;SDS011;70090;43.208;27.904;2023-07-13T06:23:39;16.13;;;12.97;;
11522;SDS011;70090;43.208;27.904;2023-07-13T06:26:06;14.27;;;12.30;;
11522;SDS011;70090;43.208;27.904;2023-07-13T06:28:33;14.63;;;13.03;;
11522;SDS011;70090;43.208;27.904;2023-07-13T06:31:04;14.53;;;12.97;;
11522;SDS011;70090;43.208;27.904;2023-07-13T06:33:32;14.03;;;12.63;;
11522;SDS011;70090;43.208;27.904;2023-07-13T06:35:59;14.77;;;13.33;;
11522;SDS011;70090;43.208;27.904;2023-07-13T06:38:26;14.93;;;13.37;;
11522;SDS011;70090;43.208;27.904;2023-07-13T06:40:52;15.70;;;13.43;;
11522;SDS011;70090;43.208;27.904;2023-07-13T06:43:19;15.67;;;14.03;;
11522;SDS011;70090;43.208;27.904;2023-07-13T06:45:46;15.20;;;13.60;;
11522;SDS011;70090;43.208;27.904;2023-07-13T06:48:16;15.03;;;13.40;;
11522;SDS011;70090;43.208;27.904;2023-07-13T06:50:44;18.13;;;13.63;;
11522;SDS011;70090;43.208;27.904;2023-07-13T06:53:12;15.63;;;14.03;;
11522;SDS011;70090;43.208;27.904;2023-07-13T06:55:39;15.20;;;13.70;;
11522;SDS011;70090;43.208;27.904;2023-07-13T06:58:06;22.77;;;14.73;;
11522;SDS011;70090;43.208;27.904;2023-07-13T07:00:33;15.47;;;13.60;;
11522;SDS011;70090;43.208;27.904;2023-07-13T07:03:00;17.77;;;14.43;;
11522;SDS011;70090;43.208;27.904;2023-07-13T07:05:28;16.80;;;14.80;;
11522;SDS011;70090;43.208;27.904;2023-07-13T07:07:55;18.77;;;15.07;;
11522;SDS011;70090;43.208;27.904;2023-07-13T07:10:22;15.07;;;13.57;;
11522;SDS011;70090;43.208;27.904;2023-07-13T07:12:49;15.30;;;13.00;;
11522;SDS011;70090;43.208;27.904;2023-07-13T07:15:16;15.70;;;13.33;;
11522;SDS011;70090;43.208;27.904;2023-07-13T07:17:44;13.70;;;12.40;;
11522;SDS011;70090;43.208;27.904;2023-07-13T07:20:11;13.57;;;12.17;;
11522;SDS011;70090;43.208;27.904;2023-07-13T07:22:40;16.97;;;12.67;;
11522;SDS011;70090;43.208;27.904;2023-07-13T07:25:07;14.57;;;13.03;;
11522;SDS011;70090;43.208;27.904;2023-07-13T07:27:34;13.33;;;11.90;;
11522;SDS011;70090;43.208;27.904;2023-07-13T07:30:01;16.27;;;12.83;;
11522;SDS011;70090;43.208;27.904;2023-07-13T07:32:28;17.17;;;13.20;;
11522;SDS011;70090;43.208;27.904;2023-07-13T07:34:56;16.00;;;13.20;;
11522;SDS011;70090;43.208;27.904;2023-07-13T07:37:23;14.33;;;12.87;;
11522;SDS011;70090;43.208;27.904;2023-07-13T07:39:52;14.80;;;13.23;;
11522;SDS011;70090;43.208;27.904;2023-07-13T07:42:18;14.20;;;12.70;;
11522;SDS011;70090;43.208;27.904;2023-07-13T07:44:46;14.20;;;12.63;;
11522;SDS011;70090;43.208;27.904;2023-07-13T07:47:13;13.30;;;12.00;;
11522;SDS011;70090;43.208;27.904;2023-07-13T07:49:40;12.90;;;11.53;;
11522;SDS011;70090;43.208;27.904;2023-07-13T07:52:07;15.73;;;11.10;;
11522;SDS011;70090;43.208;27.904;2023-07-13T07:54:34;13.63;;;11.67;;
11522;SDS011;70090;43.208;27.904;2023-07-13T07:57:03;12.70;;;11.50;;
11522;SDS011;70090;43.208;27.904;2023-07-13T07:59:30;13.23;;;11.77;;
11522;SDS011;70090;43.208;27.904;2023-07-13T08:01:57;12.93;;;11.73;;
11522;SDS011;70090;43.208;27.904;2023-07-13T08:04:24;15.27;;;13.77;;
11522;SDS011;70090;43.208;27.904;2023-07-13T08:06:51;13.50;;;12.17;;
11522;SDS011;70090;43.208;27.904;2023-07-13T08:09:18;13.73;;;12.37;;
11522;SDS011;70090;43.208;27.904;2023-07-13T08:11:45;14.10;;;12.33;;
11522;SDS011;70090;43.208;27.904;2023-07-13T08:14:13;13.40;;;12.10;;
11522;SDS011;70090;43.208;27.904;2023-07-13T08:16:41;17.10;;;12.33;;
11522;SDS011;70090;43.208;27.904;2023-07-13T08:19:08;14.30;;;12.90;;
11522;SDS011;70090;43.208;27.904;2023-07-13T08:21:36;16.40;;;12.00;;
11522;SDS011;70090;43.208;27.904;2023-07-13T08:24:03;16.23;;;12.73;;
11522;SDS011;70090;43.208;27.904;2023-07-13T08:26:30;13.67;;;12.30;;
11522;SDS011;70090;43.208;27.904;2023-07-13T08:28:57;13.80;;;12.30;;
11522;SDS011;70090;43.208;27.904;2023-07-13T08:31:25;13.40;;;12.10;;
11522;SDS011;70090;43.208;27.904;2023-07-13T08:33:52;14.50;;;13.03;;
11522;SDS011;70090;43.208;27.904;2023-07-13T08:36:19;14.13;;;12.70;;
11522;SDS011;70090;43.208;27.904;2023-07-13T08:38:46;15.53;;;14.03;;
11522;SDS011;70090;43.208;27.904;2023-07-13T08:41:13;15.50;;;13.80;;
11522;SDS011;70090;43.208;27.904;2023-07-13T08:43:44;15.57;;;13.97;;
11522;SDS011;70090;43.208;27.904;2023-07-13T08:46:15;14.50;;;12.90;;
11522;SDS011;70090;43.208;27.904;2023-07-13T08:48:47;13.83;;;12.40;;
11522;SDS011;70090;43.208;27.904;2023-07-13T08:51:22;13.30;;;12.03;;
11522;SDS011;70090;43.208;27.904;2023-07-13T08:53:59;13.80;;;12.50;;
11522;SDS011;70090;43.208;27.904;2023-07-13T08:56:29;13.80;;;12.47;;
11522;SDS011;70090;43.208;27.904;2023-07-13T08:58:58;14.13;;;12.83;;
11522;SDS011;70090;43.208;27.904;2023-07-13T09:01:45;14.33;;;12.70;;
11522;SDS011;70090;43.208;27.904;2023-07-13T09:04:34;14.07;;;12.53;;
11522;SDS011;70090;43.208;27.904;2023-07-13T09:07:05;14.47;;;13.00;;
11522;SDS011;70090;43.208;27.904;2023-07-13T09:09:41;14.27;;;12.83;;
11522;SDS011;70090;43.208;27.904;2023-07-13T09:12:19;13.87;;;12.47;;
11522;SDS011;70090;43.208;27.904;2023-07-13T09:14:53;14.57;;;12.93;;
11522;SDS011;70090;43.208;27.904;2023-07-13T09:17:24;14.50;;;12.90;;
11522;SDS011;70090;43.208;27.904;2023-07-13T09:19:56;14.23;;;12.93;;
11522;SDS011;70090;43.208;27.904;2023-07-13T09:22:26;13.67;;;12.40;;
11522;SDS011;70090;43.208;27.904;2023-07-13T09:24:57;17.23;;;13.13;;
11522;SDS011;70090;43.208;27.904;2023-07-13T09:27:30;14.43;;;12.53;;
11522;SDS011;70090;43.208;27.904;2023-07-13T09:30:11;13.57;;;12.27;;
11522;SDS011;70090;43.208;27.904;2023-07-13T09:32:56;13.97;;;12.67;;
11522;SDS011;70090;43.208;27.904;2023-07-13T09:35:26;14.80;;;13.10;;
11522;SDS011;70090;43.208;27.904;2023-07-13T09:37:57;15.23;;;13.20;;
11522;SDS011;70090;43.208;27.904;2023-07-13T09:40:28;14.87;;;13.23;;
11522;SDS011;70090;43.208;27.904;2023-07-13T09:43:02;14.37;;;12.77;;
11522;SDS011;70090;43.208;27.904;2023-07-13T09:45:32;15.37;;;13.63;;
11522;SDS011;70090;43.208;27.904;2023-07-13T09:48:03;15.60;;;14.23;;
11522;SDS011;70090;43.208;27.904;2023-07-13T09:50:33;14.90;;;13.57;;
11522;SDS011;70090;43.208;27.904;2023-07-13T09:53:00;14.77;;;13.37;;
11522;SDS011;70090;43.208;27.904;2023-07-13T09:55:29;15.07;;;13.63;;
11522;SDS011;70090;43.208;27.904;2023-07-13T09:58:02;15.67;;;14.17;;
11522;SDS011;70090;43.208;27.904;2023-07-13T10:00:31;16.10;;;14.60;;
11522;SDS011;70090;43.208;27.904;2023-07-13T10:02:59;14.90;;;13.50;;
11522;SDS011;70090;43.208;27.904;2023-07-13T10:05:35;16.10;;;14.50;;
11522;SDS011;70090;43.208;27.904;2023-07-13T10:08:04;16.40;;;14.67;;
11522;SDS011;70090;43.208;27.904;2023-07-13T10:10:32;15.53;;;13.90;;
11522;SDS011;70090;43.208;27.904;2023-07-13T10:13:01;17.00;;;15.07;;
11522;SDS011;70090;43.208;27.904;2023-07-13T10:15:30;17.37;;;15.87;;
11522;SDS011;70090;43.208;27.904;2023-07-13T10:17:58;17.67;;;15.23;;
11522;SDS011;70090;43.208;27.904;2023-07-13T10:20:26;16.73;;;15.27;;
11522;SDS011;70090;43.208;27.904;2023-07-13T10:22:56;16.83;;;15.13;;
11522;SDS011;70090;43.208;27.904;2023-07-13T10:25:26;17.50;;;15.83;;
11522;SDS011;70090;43.208;27.904;2023-07-13T10:28:00;18.17;;;16.47;;
11522;SDS011;70090;43.208;27.904;2023-07-13T10:30:32;18.37;;;16.57;;
11522;SDS011;70090;43.208;27.904;2023-07-13T10:33:11;17.90;;;16.20;;
11522;SDS011;70090;43.208;27.904;2023-07-13T10:35:40;17.27;;;15.33;;
11522;SDS011;70090;43.208;27.904;2023-07-13T10:38:13;17.17;;;15.30;;
11522;SDS011;70090;43.208;27.904;2023-07-13T10:40:45;16.57;;;15.07;;
11522;SDS011;70090;43.208;27.904;2023-07-13T10:43:19;18.90;;;16.97;;
11522;SDS011;70090;43.208;27.904;2023-07-13T10:45:52;17.53;;;15.90;;
11522;SDS011;70090;43.208;27.904;2023-07-13T10:48:20;18.00;;;16.30;;
11522;SDS011;70090;43.208;27.904;2023-07-13T10:50:50;17.70;;;16.03;;
11522;SDS011;70090;43.208;27.904;2023-07-13T10:53:21;18.47;;;16.77;;
11522;SDS011;70090;43.208;27.904;2023-07-13T10:55:55;18.17;;;16.50;;
11522;SDS011;70090;43.208;27.904;2023-07-13T10:58:28;18.50;;;16.77;;
11522;SDS011;70090;43.208;27.904;2023-07-13T11:01:02;18.53;;;16.73;;
11522;SDS011;70090;43.208;27.904;2023-07-13T11:03:34;18.70;;;17.00;;
11522;SDS011;70090;43.208;27.904;2023-07-13T11:06:07;17.60;;;16.03;;
11522;SDS011;70090;43.208;27.904;2023-07-13T11:08:50;17.97;;;16.23;;
11522;SDS011;70090;43.208;27.904;2023-07-13T11:11:36;18.80;;;17.07;;
11522;SDS011;70090;43.208;27.904;2023-07-13T11:14:04;18.77;;;16.97;;
11522;SDS011;70090;43.208;27.904;2023-07-13T11:16:51;18.17;;;16.57;;
11522;SDS011;70090;43.208;27.904;2023-07-13T11:22:15;18.97;;;17.17;;
11522;SDS011;70090;43.208;27.904;2023-07-13T11:24:52;18.70;;;16.90;;
11522;SDS011;70090;43.208;27.904;2023-07-13T11:30:23;18.97;;;15.87;;
11522;SDS011;70090;43.208;27.904;2023-07-13T11:35:51;17.17;;;15.77;;
11522;SDS011;70090;43.208;27.904;2023-07-13T11:38:31;18.20;;;16.60;;
11522;SDS011;70090;43.208;27.904;2023-07-13T11:41:04;17.93;;;16.33;;
11522;SDS011;70090;43.208;27.904;2023-07-13T11:43:33;17.73;;;16.13;;
11522;SDS011;70090;43.208;27.904;2023-07-13T11:46:13;18.17;;;16.30;;
11522;SDS011;70090;43.208;27.904;2023-07-13T11:48:41;17.30;;;15.07;;
11522;SDS011;70090;43.208;27.904;2023-07-13T11:51:18;17.63;;;15.90;;
11522;SDS011;70090;43.208;27.904;2023-07-13T11:53:48;17.10;;;15.53;;
11522;SDS011;70090;43.208;27.904;2023-07-13T11:56:18;17.07;;;15.43;;
11522;SDS011;70090;43.208;27.904;2023-07-13T11:58:48;17.23;;;15.53;;
11522;SDS011;70090;43.208;27.904;2023-07-13T12:01:18;17.20;;;15.40;;
11522;SDS011;70090;43.208;27.904;2023-07-13T12:03:47;16.93;;;15.20;;
11522;SDS011;70090;43.208;27.904;2023-07-13T12:06:21;16.80;;;15.20;;
11522;SDS011;70090;43.208;27.904;2023-07-13T12:08:55;17.17;;;15.50;;
11522;SDS011;70090;43.208;27.904;2023-07-13T12:11:24;16.97;;;15.33;;
11522;SDS011;70090;43.208;27.904;2023-07-13T12:13:51;16.07;;;14.57;;
11522;SDS011;70090;43.208;27.904;2023-07-13T12:16:21;15.87;;;14.37;;
11522;SDS011;70090;43.208;27.904;2023-07-13T12:18:58;17.10;;;15.50;;
11522;SDS011;70090;43.208;27.904;2023-07-13T12:21:28;16.30;;;14.80;;
11522;SDS011;70090;43.208;27.904;2023-07-13T12:23:57;16.67;;;15.07;;
11522;SDS011;70090;43.208;27.904;2023-07-13T12:26:28;16.07;;;14.63;;
11522;SDS011;70090;43.208;27.904;2023-07-13T12:28:57;15.90;;;14.37;;
11522;SDS011;70090;43.208;27.904;2023-07-13T12:31:29;14.97;;;13.67;;
11522;SDS011;70090;43.208;27.904;2023-07-13T12:33:59;16.53;;;14.80;;
11522;SDS011;70090;43.208;27.904;2023-07-13T12:36:29;16.57;;;14.97;;
11522;SDS011;70090;43.208;27.904;2023-07-13T12:38:59;16.50;;;14.80;;
11522;SDS011;70090;43.208;27.904;2023-07-13T12:41:32;16.10;;;14.43;;
11522;SDS011;70090;43.208;27.904;2023-07-13T12:44:00;15.57;;;14.13;;
11522;SDS011;70090;43.208;27.904;2023-07-13T12:46:27;15.77;;;14.37;;
11522;SDS011;70090;43.208;27.904;2023-07-13T12:48:56;15.80;;;14.30;;
11522;SDS011;70090;43.208;27.904;2023-07-13T12:51:25;16.03;;;14.40;;
11522;SDS011;70090;43.208;27.904;2023-07-13T12:53:56;15.53;;;13.90;;
11522;SDS011;70090;43.208;27.904;2023-07-13T12:56:26;15.57;;;13.97;;
11522;SDS011;70090;43.208;27.904;2023-07-13T12:58:58;14.73;;;13.37;;
11522;SDS011;70090;43.208;27.904;2023-07-13T13:01:29;15.33;;;14.00;;
11522;SDS011;70090;43.208;27.904;2023-07-13T13:04:00;15.17;;;13.80;;
11522;SDS011;70090;43.208;27.904;2023-07-13T13:06:31;15.10;;;13.60;;
11522;SDS011;70090;43.208;27.904;2023-07-13T13:08:58;14.80;;;13.53;;
11522;SDS011;70090;43.208;27.904;2023-07-13T13:11:26;14.83;;;13.37;;
11522;SDS011;70090;43.208;27.904;2023-07-13T13:13:55;15.50;;;13.97;;
11522;SDS011;70090;43.208;27.904;2023-07-13T13:16:26;15.17;;;13.67;;
11522;SDS011;70090;43.208;27.904;2023-07-13T13:18:57;14.87;;;13.37;;
11522;SDS011;70090;43.208;27.904;2023-07-13T13:21:27;15.53;;;13.77;;
11522;SDS011;70090;43.208;27.904;2023-07-13T13:23:54;14.67;;;13.20;;
11522;SDS011;70090;43.208;27.904;2023-07-13T13:26:21;15.73;;;14.10;;
11522;SDS011;70090;43.208;27.904;2023-07-13T13:28:49;15.73;;;14.23;;
11522;SDS011;70090;43.208;27.904;2023-07-13T13:31:16;15.70;;;14.30;;
11522;SDS011;70090;43.208;27.904;2023-07-13T13:33:44;15.60;;;14.10;;
11522;SDS011;70090;43.208;27.904;2023-07-13T13:36:16;16.03;;;14.43;;
11522;SDS011;70090;43.208;27.904;2023-07-13T13:38:46;15.33;;;13.93;;
11522;SDS011;70090;43.208;27.904;2023-07-13T13:41:14;15.20;;;13.67;;
11522;SDS011;70090;43.208;27.904;2023-07-13T13:43:41;15.00;;;13.70;;
11522;SDS011;70090;43.208;27.904;2023-07-13T13:46:13;15.13;;;13.63;;
11522;SDS011;70090;43.208;27.904;2023-07-13T13:48:41;15.60;;;14.20;;
11522;SDS011;70090;43.208;27.904;2023-07-13T13:51:13;16.00;;;14.30;;
11522;SDS011;70090;43.208;27.904;2023-07-13T13:53:43;15.60;;;14.03;;
11522;SDS011;70090;43.208;27.904;2023-07-13T13:56:10;15.77;;;14.33;;
11522;SDS011;70090;43.208;27.904;2023-07-13T13:58:37;15.63;;;14.10;;
11522;SDS011;70090;43.208;27.904;2023-07-13T14:01:08;16.93;;;14.43;;
11522;SDS011;70090;43.208;27.904;2023-07-13T14:03:39;17.50;;;14.77;;
11522;SDS011;70090;43.208;27.904;2023-07-13T14:06:09;16.47;;;14.80;;
11522;SDS011;70090;43.208;27.904;2023-07-13T14:08:39;17.93;;;15.20;;
11522;SDS011;70090;43.208;27.904;2023-07-13T14:11:07;17.20;;;15.37;;
11522;SDS011;70090;43.208;27.904;2023-07-13T14:13:38;16.57;;;15.07;;
11522;SDS011;70090;43.208;27.904;2023-07-13T14:16:09;17.03;;;15.10;;
11522;SDS011;70090;43.208;27.904;2023-07-13T14:18:38;16.70;;;15.13;;
11522;SDS011;70090;43.208;27.904;2023-07-13T14:21:10;17.07;;;15.27;;
11522;SDS011;70090;43.208;27.904;2023-07-13T14:23:38;17.93;;;16.13;;
11522;SDS011;70090;43.208;27.904;2023-07-13T14:26:08;18.33;;;16.63;;
11522;SDS011;70090;43.208;27.904;2023-07-13T14:28:37;17.97;;;15.53;;
11522;SDS011;70090;43.208;27.904;2023-07-13T14:31:07;17.20;;;15.57;;